sensor_id;sensor_type;location;lat;lon;timestamp;pressure;altitude;pressure_sealevel;temperature;humidity
63607;BME280;71992;52.478;-1.918;2024-03-22T00:00:33;100014.38;;;9.40;98.23
63607;BME280;71992;52.478;-1.918;2024-03-22T00:03:01;100019.97;;;9.36;98.07
63607;BME280;71992;52.478;-1.918;2024-03-22T00:05:32;100028.03;;;9.34;99.01
63607;BME280;71992;52.478;-1.918;2024-03-22T00:08:00;100025.19;;;9.37;99.28
63607;BME280;71992;52.478;-1.918;2024-03-22T00:10:28;100022.44;;;9.39;100.00
63607;BME280;71992;52.478;-1.918;2024-03-22T00:12:56;100024.25;;;9.38;100.00
63607;BME280;71992;52.478;-1.918;2024-03-22T00:15:24;100027.78;;;9.39;99.74
63607;BME280;71992;52.478;-1.918;2024-03-22T00:17:53;100023.41;;;9.38;100.00
63607;BME280;71992;52.478;-1.918;2024-03-22T00:20:21;100030.50;;;9.37;100.00
63607;BME280;71992;52.478;-1.918;2024-03-22T00:22:52;100020.88;;;9.35;100.00
63607;BME280;71992;52.478;-1.918;2024-03-22T00:25:20;100029.72;;;9.35;100.00
63607;BME280;71992;52.478;-1.918;2024-03-22T00:27:48;100037.47;;;9.40;100.00
63607;BME280;71992;52.478;-1.918;2024-03-22T00:30:16;100025.94;;;9.39;100.00
63607;BME280;71992;52.478;-1.918;2024-03-22T00:32:44;100024.31;;;9.37;100.00
63607;BME280;71992;52.478;-1.918;2024-03-22T00:35:13;100043.94;;;9.36;100.00
63607;BME280;71992;52.478;-1.918;2024-03-22T00:37:41;100047.53;;;9.35;100.00
63607;BME280;71992;52.478;-1.918;2024-03-22T00:40:12;100036.88;;;9.35;100.00
63607;BME280;71992;52.478;-1.918;2024-03-22T00:42:40;100035.16;;;9.34;100.00
63607;BME280;71992;52.478;-1.918;2024-03-22T00:45:09;100027.06;;;9.35;100.00
63607;BME280;71992;52.478;-1.918;2024-03-22T00:47:37;100016.06;;;9.41;100.00
63607;BME280;71992;52.478;-1.918;2024-03-22T00:50:06;100014.19;;;9.44;100.00
63607;BME280;71992;52.478;-1.918;2024-03-22T00:52:34;100022.09;;;9.45;100.00
63607;BME280;71992;52.478;-1.918;2024-03-22T00:55:03;100020.53;;;9.41;100.00
63607;BME280;71992;52.478;-1.918;2024-03-22T00:57:34;100010.81;;;9.40;100.00
63607;BME280;71992;52.478;-1.918;2024-03-22T01:00:03;100021.47;;;9.40;100.00
63607;BME280;71992;52.478;-1.918;2024-03-22T01:02:32;100012.47;;;9.43;100.00
63607;BME280;71992;52.478;-1.918;2024-03-22T01:05:00;100005.22;;;9.45;100.00
63607;BME280;71992;52.478;-1.918;2024-03-22T01:07:28;100007.88;;;9.45;100.00
63607;BME280;71992;52.478;-1.918;2024-03-22T01:09:57;100009.81;;;9.43;100.00
63607;BME280;71992;52.478;-1.918;2024-03-22T01:12:25;100002.66;;;9.43;100.00
63607;BME280;71992;52.478;-1.918;2024-03-22T01:14:56;100003.25;;;9.48;100.00
63607;BME280;71992;52.478;-1.918;2024-03-22T01:17:24;100003.06;;;9.51;100.00
63607;BME280;71992;52.478;-1.918;2024-03-22T01:19:52;100006.63;;;9.52;100.00
63607;BME280;71992;52.478;-1.918;2024-03-22T01:22:20;99995.84;;;9.53;100.00
63607;BME280;71992;52.478;-1.918;2024-03-22T01:24:49;99996.28;;;9.61;100.00
63607;BME280;71992;52.478;-1.918;2024-03-22T01:27:17;99987.22;;;9.64;100.00
63607;BME280;71992;52.478;-1.918;2024-03-22T01:29:46;99986.47;;;9.62;100.00
63607;BME280;71992;52.478;-1.918;2024-03-22T01:32:17;99979.03;;;9.67;100.00
63607;BME280;71992;52.478;-1.918;2024-03-22T01:34:45;99987.66;;;9.72;100.00
63607;BME280;71992;52.478;-1.918;2024-03-22T01:37:13;99978.69;;;9.73;100.00
63607;BME280;71992;52.478;-1.918;2024-03-22T01:39:41;99975.94;;;9.75;100.00
63607;BME280;71992;52.478;-1.918;2024-03-22T01:42:10;99980.25;;;9.77;100.00
63607;BME280;71992;52.478;-1.918;2024-03-22T01:44:38;99973.09;;;9.78;100.00
63607;BME280;71992;52.478;-1.918;2024-03-22T01:47:07;99976.53;;;9.80;100.00
63607;BME280;71992;52.478;-1.918;2024-03-22T01:49:38;99971.13;;;9.81;100.00
63607;BME280;71992;52.478;-1.918;2024-03-22T01:52:06;99968.25;;;9.85;100.00
63607;BME280;71992;52.478;-1.918;2024-03-22T01:54:34;99969.13;;;9.85;100.00
63607;BME280;71992;52.478;-1.918;2024-03-22T01:57:03;99966.16;;;9.90;100.00
63607;BME280;71992;52.478;-1.918;2024-03-22T01:59:32;99965.25;;;9.91;100.00
63607;BME280;71992;52.478;-1.918;2024-03-22T02:02:01;99966.00;;;9.93;100.00
63607;BME280;71992;52.478;-1.918;2024-03-22T02:04:31;99970.56;;;9.91;100.00
63607;BME280;71992;52.478;-1.918;2024-03-22T02:07:02;99969.72;;;9.90;100.00
63607;BME280;71992;52.478;-1.918;2024-03-22T02:09:30;99964.19;;;9.93;100.00
63607;BME280;71992;52.478;-1.918;2024-03-22T02:11:59;99969.34;;;9.96;100.00
63607;BME280;71992;52.478;-1.918;2024-03-22T02:14:27;99973.81;;;9.96;100.00
63607;BME280;71992;52.478;-1.918;2024-03-22T02:16:55;99979.06;;;9.97;100.00
63607;BME280;71992;52.478;-1.918;2024-03-22T02:19:24;99971.84;;;9.99;100.00
63607;BME280;71992;52.478;-1.918;2024-03-22T02:21:52;99977.75;;;10.04;100.00
63607;BME280;71992;52.478;-1.918;2024-03-22T02:24:22;99962.50;;;10.07;100.00
63607;BME280;71992;52.478;-1.918;2024-03-22T02:26:51;99972.50;;;10.03;100.00
63607;BME280;71992;52.478;-1.918;2024-03-22T02:29:19;99966.59;;;9.98;100.00
63607;BME280;71992;52.478;-1.918;2024-03-22T02:31:47;99960.47;;;9.96;100.00
63607;BME280;71992;52.478;-1.918;2024-03-22T02:34:15;99962.94;;;9.99;100.00
63607;BME280;71992;52.478;-1.918;2024-03-22T02:36:44;99953.94;;;10.01;100.00
63607;BME280;71992;52.478;-1.918;2024-03-22T02:39:12;99953.16;;;9.99;100.00
63607;BME280;71992;52.478;-1.918;2024-03-22T02:41:43;99961.16;;;9.99;100.00
63607;BME280;71992;52.478;-1.918;2024-03-22T02:44:11;99948.84;;;9.97;100.00
63607;BME280;71992;52.478;-1.918;2024-03-22T02:46:39;99945.31;;;9.96;100.00
63607;BME280;71992;52.478;-1.918;2024-03-22T02:49:07;99958.50;;;9.99;100.00
63607;BME280;71992;52.478;-1.918;2024-03-22T02:51:35;99948.75;;;9.98;100.00
63607;BME280;71992;52.478;-1.918;2024-03-22T02:54:04;99959.44;;;9.98;100.00
63607;BME280;71992;52.478;-1.918;2024-03-22T02:56:32;99939.91;;;9.98;100.00
63607;BME280;71992;52.478;-1.918;2024-03-22T02:59:03;99944.28;;;9.99;100.00
63607;BME280;71992;52.478;-1.918;2024-03-22T03:01:31;99952.28;;;9.99;100.00
63607;BME280;71992;52.478;-1.918;2024-03-22T03:03:59;99945.94;;;10.01;100.00
63607;BME280;71992;52.478;-1.918;2024-03-22T03:06:27;99944.88;;;10.04;100.00
63607;BME280;71992;52.478;-1.918;2024-03-22T03:08:56;99935.34;;;10.00;100.00
63607;BME280;71992;52.478;-1.918;2024-03-22T03:11:24;99939.63;;;10.02;100.00
63607;BME280;71992;52.478;-1.918;2024-03-22T03:13:52;99945.06;;;10.01;100.00
63607;BME280;71992;52.478;-1.918;2024-03-22T03:16:23;99942.50;;;9.99;100.00
63607;BME280;71992;52.478;-1.918;2024-03-22T03:18:51;99942.50;;;9.99;100.00
63607;BME280;71992;52.478;-1.918;2024-03-22T03:21:19;99942.50;;;9.99;100.00
63607;BME280;71992;52.478;-1.918;2024-03-22T03:23:48;99947.72;;;10.01;100.00
63607;BME280;71992;52.478;-1.918;2024-03-22T03:26:16;99962.19;;;9.97;100.00
63607;BME280;71992;52.478;-1.918;2024-03-22T03:28:44;99966.94;;;9.92;100.00
63607;BME280;71992;52.478;-1.918;2024-03-22T03:31:12;99967.50;;;9.82;100.00
63607;BME280;71992;52.478;-1.918;2024-03-22T03:33:43;99984.72;;;9.77;100.00
63607;BME280;71992;52.478;-1.918;2024-03-22T03:36:11;99973.56;;;9.70;100.00
63607;BME280;71992;52.478;-1.918;2024-03-22T03:38:39;99987.22;;;9.64;100.00
63607;BME280;71992;52.478;-1.918;2024-03-22T03:41:07;99982.25;;;9.58;100.00
63607;BME280;71992;52.478;-1.918;2024-03-22T03:43:35;99988.88;;;9.51;100.00
63607;BME280;71992;52.478;-1.918;2024-03-22T03:46:04;99970.56;;;9.45;100.00
63607;BME280;71992;52.478;-1.918;2024-03-22T03:48:32;99966.19;;;9.44;100.00
63607;BME280;71992;52.478;-1.918;2024-03-22T03:51:03;99969.06;;;9.40;100.00
63607;BME280;71992;52.478;-1.918;2024-03-22T03:53:31;99961.97;;;9.39;100.00
63607;BME280;71992;52.478;-1.918;2024-03-22T03:55:59;99969.81;;;9.43;100.00
63607;BME280;71992;52.478;-1.918;2024-03-22T03:58:27;99959.16;;;9.43;100.00
63607;BME280;71992;52.478;-1.918;2024-03-22T04:00:55;99959.25;;;9.41;100.00
63607;BME280;71992;52.478;-1.918;2024-03-22T04:03:24;99961.13;;;9.39;100.00
63607;BME280;71992;52.478;-1.918;2024-03-22T04:05:56;99957.50;;;9.40;100.00
63607;BME280;71992;52.478;-1.918;2024-03-22T04:08:27;99959.25;;;9.41;100.00
63607;BME280;71992;52.478;-1.918;2024-03-22T04:10:56;99964.66;;;9.39;100.00
63607;BME280;71992;52.478;-1.918;2024-03-22T04:13:25;99953.31;;;9.36;100.00
63607;BME280;71992;52.478;-1.918;2024-03-22T04:15:53;99955.22;;;9.34;100.00
63607;BME280;71992;52.478;-1.918;2024-03-22T04:18:21;99949.78;;;9.35;100.00
63607;BME280;71992;52.478;-1.918;2024-03-22T04:20:53;99954.25;;;9.35;100.00
63607;BME280;71992;52.478;-1.918;2024-03-22T04:23:24;99957.03;;;9.33;100.00
63607;BME280;71992;52.478;-1.918;2024-03-22T04:25:57;99951.69;;;9.33;100.00
63607;BME280;71992;52.478;-1.918;2024-03-22T04:28:26;99953.47;;;9.33;100.00
63607;BME280;71992;52.478;-1.918;2024-03-22T04:30:56;99956.06;;;9.34;100.00
63607;BME280;71992;52.478;-1.918;2024-03-22T04:33:24;99956.16;;;9.33;100.00
63607;BME280;71992;52.478;-1.918;2024-03-22T04:35:53;99958.91;;;9.31;100.00
63607;BME280;71992;52.478;-1.918;2024-03-22T04:38:21;99966.91;;;9.31;100.00
63607;BME280;71992;52.478;-1.918;2024-03-22T04:40:49;99968.69;;;9.31;100.00
63607;BME280;71992;52.478;-1.918;2024-03-22T04:43:20;99967.75;;;9.32;100.00
63607;BME280;71992;52.478;-1.918;2024-03-22T04:45:48;99973.09;;;9.32;100.00
63607;BME280;71992;52.478;-1.918;2024-03-22T04:48:18;99964.25;;;9.31;100.00
63607;BME280;71992;52.478;-1.918;2024-03-22T04:50:46;99950.03;;;9.31;100.00
63607;BME280;71992;52.478;-1.918;2024-03-22T04:53:15;99956.25;;;9.31;100.00
63607;BME280;71992;52.478;-1.918;2024-03-22T04:55:43;99953.75;;;9.28;100.00
63607;BME280;71992;52.478;-1.918;2024-03-22T04:58:13;99960.97;;;9.26;100.00
63607;BME280;71992;52.478;-1.918;2024-03-22T05:00:45;99959.34;;;9.24;100.00
63607;BME280;71992;52.478;-1.918;2024-03-22T05:03:14;99952.97;;;9.26;100.00
63607;BME280;71992;52.478;-1.918;2024-03-22T05:05:42;99944.13;;;9.26;100.00
63607;BME280;71992;52.478;-1.918;2024-03-22T05:08:11;99946.00;;;9.24;100.00
63607;BME280;71992;52.478;-1.918;2024-03-22T05:10:39;99941.66;;;9.23;100.00
63607;BME280;71992;52.478;-1.918;2024-03-22T05:13:07;99936.31;;;9.23;100.00
63607;BME280;71992;52.478;-1.918;2024-03-22T05:15:36;99928.47;;;9.19;100.00
63607;BME280;71992;52.478;-1.918;2024-03-22T05:18:07;99940.94;;;9.19;100.00
63607;BME280;71992;52.478;-1.918;2024-03-22T05:20:35;99933.91;;;9.18;100.00
63607;BME280;71992;52.478;-1.918;2024-03-22T05:23:03;99920.59;;;9.18;100.00
63607;BME280;71992;52.478;-1.918;2024-03-22T05:25:31;99925.13;;;9.16;100.00
63607;BME280;71992;52.478;-1.918;2024-03-22T05:28:00;99926.97;;;9.15;100.00
63607;BME280;71992;52.478;-1.918;2024-03-22T05:30:28;99931.41;;;9.15;100.00
63607;BME280;71992;52.478;-1.918;2024-03-22T05:32:56;99932.16;;;9.17;100.00
63607;BME280;71992;52.478;-1.918;2024-03-22T05:35:27;99935.81;;;9.16;100.00
63607;BME280;71992;52.478;-1.918;2024-03-22T05:37:55;99934.06;;;9.15;100.00
63607;BME280;71992;52.478;-1.918;2024-03-22T05:40:23;99926.00;;;9.16;100.00
63607;BME280;71992;52.478;-1.918;2024-03-22T05:42:52;99920.75;;;9.15;100.00
63607;BME280;71992;52.478;-1.918;2024-03-22T05:45:20;99918.19;;;9.13;100.00
63607;BME280;71992;52.478;-1.918;2024-03-22T05:47:50;99920.94;;;9.12;100.00
63607;BME280;71992;52.478;-1.918;2024-03-22T05:50:18;99916.63;;;9.09;100.00
63607;BME280;71992;52.478;-1.918;2024-03-22T05:52:49;99923.78;;;9.09;100.00
63607;BME280;71992;52.478;-1.918;2024-03-22T05:55:17;99923.94;;;9.06;100.00
63607;BME280;71992;52.478;-1.918;2024-03-22T05:57:46;99917.75;;;9.05;100.00
63607;BME280;71992;52.478;-1.918;2024-03-22T06:00:14;99930.28;;;9.03;100.00
63607;BME280;71992;52.478;-1.918;2024-03-22T06:02:43;99929.50;;;9.01;100.00
63607;BME280;71992;52.478;-1.918;2024-03-22T06:05:13;99941.97;;;9.01;100.00
63607;BME280;71992;52.478;-1.918;2024-03-22T06:07:42;99945.50;;;9.01;100.00
63607;BME280;71992;52.478;-1.918;2024-03-22T06:10:12;99958.81;;;9.01;100.00
63607;BME280;71992;52.478;-1.918;2024-03-22T06:12:41;99954.38;;;9.02;100.00
63607;BME280;71992;52.478;-1.918;2024-03-22T06:15:09;99939.31;;;9.01;100.00
63607;BME280;71992;52.478;-1.918;2024-03-22T06:17:37;99937.50;;;9.01;100.00
63607;BME280;71992;52.478;-1.918;2024-03-22T06:20:07;99942.94;;;8.99;100.00
63607;BME280;71992;52.478;-1.918;2024-03-22T06:22:35;99950.16;;;8.97;100.00
63607;BME280;71992;52.478;-1.918;2024-03-22T06:25:04;99939.56;;;8.96;100.00
63607;BME280;71992;52.478;-1.918;2024-03-22T06:27:35;99946.88;;;8.92;100.00
63607;BME280;71992;52.478;-1.918;2024-03-22T06:30:03;99955.81;;;8.91;100.00
63607;BME280;71992;52.478;-1.918;2024-03-22T06:32:32;99956.78;;;8.90;100.00
63607;BME280;71992;52.478;-1.918;2024-03-22T06:35:00;99950.56;;;8.90;100.00
63607;BME280;71992;52.478;-1.918;2024-03-22T06:37:28;99947.06;;;8.89;100.00
63607;BME280;71992;52.478;-1.918;2024-03-22T06:39:56;99945.34;;;8.88;100.00
63607;BME280;71992;52.478;-1.918;2024-03-22T06:42:25;99948.84;;;8.89;100.00
63607;BME280;71992;52.478;-1.918;2024-03-22T06:44:56;99950.66;;;8.88;100.00
63607;BME280;71992;52.478;-1.918;2024-03-22T06:47:24;99958.56;;;8.90;100.00
63607;BME280;71992;52.478;-1.918;2024-03-22T06:49:53;99955.03;;;8.89;100.00
63607;BME280;71992;52.478;-1.918;2024-03-22T06:52:21;99966.47;;;8.91;100.00
63607;BME280;71992;52.478;-1.918;2024-03-22T06:54:49;99956.78;;;8.90;100.00
63607;BME280;71992;52.478;-1.918;2024-03-22T06:57:17;99957.44;;;8.94;100.00
63607;BME280;71992;52.478;-1.918;2024-03-22T06:59:46;99964.50;;;8.95;100.00
63607;BME280;71992;52.478;-1.918;2024-03-22T07:02:17;99967.25;;;8.93;100.00
63607;BME280;71992;52.478;-1.918;2024-03-22T07:04:45;99960.88;;;8.96;100.00
63607;BME280;71992;52.478;-1.918;2024-03-22T07:07:13;99961.06;;;8.93;100.00
63607;BME280;71992;52.478;-1.918;2024-03-22T07:09:42;99955.63;;;8.94;100.00
63607;BME280;71992;52.478;-1.918;2024-03-22T07:12:10;99954.78;;;8.94;100.00
63607;BME280;71992;52.478;-1.918;2024-03-22T07:14:38;99967.06;;;8.96;100.00
63607;BME280;71992;52.478;-1.918;2024-03-22T07:17:06;99976.88;;;8.96;100.00
63607;BME280;71992;52.478;-1.918;2024-03-22T07:19:37;99977.66;;;8.98;100.00
63607;BME280;71992;52.478;-1.918;2024-03-22T07:22:05;99973.94;;;9.01;100.00
63607;BME280;71992;52.478;-1.918;2024-03-22T07:24:34;99975.69;;;9.02;100.00
63607;BME280;71992;52.478;-1.918;2024-03-22T07:27:02;99981.69;;;9.05;100.00
63607;BME280;71992;52.478;-1.918;2024-03-22T07:29:30;99987.00;;;9.05;100.00
63607;BME280;71992;52.478;-1.918;2024-03-22T07:31:59;99981.75;;;9.04;100.00
63607;BME280;71992;52.478;-1.918;2024-03-22T07:34:29;99984.28;;;9.07;100.00
63607;BME280;71992;52.478;-1.918;2024-03-22T07:37:00;99989.69;;;9.05;100.00
63607;BME280;71992;52.478;-1.918;2024-03-22T07:39:28;99991.66;;;9.02;100.00
63607;BME280;71992;52.478;-1.918;2024-03-22T07:41:56;99996.03;;;9.03;100.00
63607;BME280;71992;52.478;-1.918;2024-03-22T07:44:25;99996.81;;;9.05;100.00
63607;BME280;71992;52.478;-1.918;2024-03-22T07:46:53;99993.44;;;9.01;100.00
63607;BME280;71992;52.478;-1.918;2024-03-22T07:49:22;99991.56;;;9.03;100.00
63607;BME280;71992;52.478;-1.918;2024-03-22T07:51:50;99990.44;;;9.07;100.00
63607;BME280;71992;52.478;-1.918;2024-03-22T07:54:21;99996.47;;;9.11;100.00
63607;BME280;71992;52.478;-1.918;2024-03-22T07:56:49;99994.56;;;9.13;100.00
63607;BME280;71992;52.478;-1.918;2024-03-22T07:59:17;99993.56;;;9.15;99.53
63607;BME280;71992;52.478;-1.918;2024-03-22T08:01:45;99991.81;;;9.14;99.04
63607;BME280;71992;52.478;-1.918;2024-03-22T08:04:14;99988.56;;;9.09;98.33
63607;BME280;71992;52.478;-1.918;2024-03-22T08:06:42;99991.91;;;9.13;97.72
63607;BME280;71992;52.478;-1.918;2024-03-22T08:09:11;99999.16;;;9.11;97.67
63607;BME280;71992;52.478;-1.918;2024-03-22T08:11:41;99994.56;;;9.13;97.04
63607;BME280;71992;52.478;-1.918;2024-03-22T08:14:10;100003.59;;;9.10;96.79
63607;BME280;71992;52.478;-1.918;2024-03-22T08:16:38;99987.47;;;9.13;96.82
63607;BME280;71992;52.478;-1.918;2024-03-22T08:19:06;99988.13;;;9.17;96.49
63607;BME280;71992;52.478;-1.918;2024-03-22T08:21:34;99993.38;;;9.18;96.41
63607;BME280;71992;52.478;-1.918;2024-03-22T08:24:03;99985.66;;;9.14;95.56
63607;BME280;71992;52.478;-1.918;2024-03-22T08:26:31;99985.81;;;9.11;95.56
63607;BME280;71992;52.478;-1.918;2024-03-22T08:29:02;99998.19;;;9.12;95.82
63607;BME280;71992;52.478;-1.918;2024-03-22T08:31:30;99997.16;;;9.14;95.55
63607;BME280;71992;52.478;-1.918;2024-03-22T08:33:59;100006.78;;;9.17;95.65
63607;BME280;71992;52.478;-1.918;2024-03-22T08:36:28;99996.81;;;9.20;95.66
63607;BME280;71992;52.478;-1.918;2024-03-22T08:38:57;100004.56;;;9.25;94.65
63607;BME280;71992;52.478;-1.918;2024-03-22T08:41:25;100000.00;;;9.27;94.35
63607;BME280;71992;52.478;-1.918;2024-03-22T08:43:53;99996.50;;;9.27;94.20
63607;BME280;71992;52.478;-1.918;2024-03-22T08:46:24;100000.09;;;9.26;93.58
63607;BME280;71992;52.478;-1.918;2024-03-22T08:48:52;99993.91;;;9.25;92.73
63607;BME280;71992;52.478;-1.918;2024-03-22T08:51:21;100002.81;;;9.24;91.94
63607;BME280;71992;52.478;-1.918;2024-03-22T08:53:49;99987.88;;;9.22;91.67
63607;BME280;71992;52.478;-1.918;2024-03-22T08:56:18;99999.22;;;9.25;91.74
63607;BME280;71992;52.478;-1.918;2024-03-22T08:58:46;100000.84;;;9.28;90.46
63607;BME280;71992;52.478;-1.918;2024-03-22T09:01:14;99995.44;;;9.29;89.83
63607;BME280;71992;52.478;-1.918;2024-03-22T09:03:45;99995.34;;;9.31;89.89
63607;BME280;71992;52.478;-1.918;2024-03-22T09:06:13;100004.88;;;9.35;90.15
63607;BME280;71992;52.478;-1.918;2024-03-22T09:08:42;100004.75;;;9.38;89.53
63607;BME280;71992;52.478;-1.918;2024-03-22T09:11:10;100004.47;;;9.43;89.16
63607;BME280;71992;52.478;-1.918;2024-03-22T09:13:38;100005.41;;;9.41;88.86
63607;BME280;71992;52.478;-1.918;2024-03-22T09:16:06;100008.59;;;9.48;88.36
63607;BME280;71992;52.478;-1.918;2024-03-22T09:18:34;100013.31;;;9.43;86.91
63607;BME280;71992;52.478;-1.918;2024-03-22T09:21:05;100012.09;;;9.49;86.01
63607;BME280;71992;52.478;-1.918;2024-03-22T09:23:34;100013.84;;;9.50;85.95
63607;BME280;71992;52.478;-1.918;2024-03-22T09:26:02;100008.50;;;9.50;85.41
63607;BME280;71992;52.478;-1.918;2024-03-22T09:28:30;100005.56;;;9.54;85.47
63607;BME280;71992;52.478;-1.918;2024-03-22T09:31:03;100015.13;;;9.58;84.58
63607;BME280;71992;52.478;-1.918;2024-03-22T09:33:32;100009.78;;;9.58;83.93
63607;BME280;71992;52.478;-1.918;2024-03-22T09:36:01;100007.03;;;9.60;84.15
63607;BME280;71992;52.478;-1.918;2024-03-22T09:38:31;100011.41;;;9.61;82.30
63607;BME280;71992;52.478;-1.918;2024-03-22T09:41:00;100013.81;;;9.66;82.77
63607;BME280;71992;52.478;-1.918;2024-03-22T09:43:30;100010.69;;;9.73;81.89
63607;BME280;71992;52.478;-1.918;2024-03-22T09:45:58;100008.47;;;9.81;80.74
63607;BME280;71992;52.478;-1.918;2024-03-22T09:48:29;100016.28;;;9.85;80.43
63607;BME280;71992;52.478;-1.918;2024-03-22T09:50:57;100018.59;;;9.91;80.42
63607;BME280;71992;52.478;-1.918;2024-03-22T09:53:27;100010.31;;;9.95;80.69
63607;BME280;71992;52.478;-1.918;2024-03-22T09:56:00;100011.84;;;9.99;78.94
63607;BME280;71992;52.478;-1.918;2024-03-22T09:58:28;100024.59;;;9.94;78.51
63607;BME280;71992;52.478;-1.918;2024-03-22T10:00:56;100014.69;;;9.96;79.30
63607;BME280;71992;52.478;-1.918;2024-03-22T10:03:25;100017.78;;;10.04;78.39
63607;BME280;71992;52.478;-1.918;2024-03-22T10:05:53;100014.16;;;10.06;78.25
63607;BME280;71992;52.478;-1.918;2024-03-22T10:08:22;100015.69;;;10.10;78.53
63607;BME280;71992;52.478;-1.918;2024-03-22T10:10:50;100020.84;;;10.13;77.53
63607;BME280;71992;52.478;-1.918;2024-03-22T10:13:21;100023.34;;;10.16;77.31
63607;BME280;71992;52.478;-1.918;2024-03-22T10:15:49;100020.31;;;10.22;76.74
63607;BME280;71992;52.478;-1.918;2024-03-22T10:18:17;100015.31;;;10.32;76.50
63607;BME280;71992;52.478;-1.918;2024-03-22T10:20:46;100019.78;;;10.31;75.76
63607;BME280;71992;52.478;-1.918;2024-03-22T10:23:14;100021.41;;;10.34;75.85
63607;BME280;71992;52.478;-1.918;2024-03-22T10:25:42;100029.31;;;10.35;75.61
63607;BME280;71992;52.478;-1.918;2024-03-22T10:28:13;100025.22;;;10.30;74.35
63607;BME280;71992;52.478;-1.918;2024-03-22T10:30:44;100028.81;;;10.29;74.93
63607;BME280;71992;52.478;-1.918;2024-03-22T10:33:13;100026.22;;;10.27;73.72
63607;BME280;71992;52.478;-1.918;2024-03-22T10:35:43;100024.75;;;10.21;74.38
63607;BME280;71992;52.478;-1.918;2024-03-22T10:38:12;100033.25;;;10.14;73.97
63607;BME280;71992;52.478;-1.918;2024-03-22T10:40:44;100027.31;;;10.09;73.88
63607;BME280;71992;52.478;-1.918;2024-03-22T10:43:13;100011.19;;;10.10;74.27
63607;BME280;71992;52.478;-1.918;2024-03-22T10:45:44;100010.00;;;10.16;73.68
63607;BME280;71992;52.478;-1.918;2024-03-22T10:48:17;100008.94;;;10.18;72.52
63607;BME280;71992;52.478;-1.918;2024-03-22T10:50:47;100007.97;;;10.19;72.32
63607;BME280;71992;52.478;-1.918;2024-03-22T10:53:19;99999.47;;;10.13;72.77
63607;BME280;71992;52.478;-1.918;2024-03-22T10:55:49;99996.16;;;10.09;71.33
63607;BME280;71992;52.478;-1.918;2024-03-22T10:58:21;100014.06;;;10.07;71.37
63607;BME280;71992;52.478;-1.918;2024-03-22T11:00:55;100008.53;;;10.10;71.84
63607;BME280;71992;52.478;-1.918;2024-03-22T11:03:25;99999.41;;;10.14;72.47
63607;BME280;71992;52.478;-1.918;2024-03-22T11:05:55;99998.47;;;10.15;72.45
63607;BME280;71992;52.478;-1.918;2024-03-22T11:08:24;100007.31;;;10.16;71.57
63607;BME280;71992;52.478;-1.918;2024-03-22T11:10:54;99997.97;;;10.09;71.09
63607;BME280;71992;52.478;-1.918;2024-03-22T11:13:23;99999.38;;;10.00;70.99
63607;BME280;71992;52.478;-1.918;2024-03-22T11:15:54;100002.31;;;9.95;70.89
63607;BME280;71992;52.478;-1.918;2024-03-22T11:18:22;99998.88;;;9.93;71.03
63607;BME280;71992;52.478;-1.918;2024-03-22T11:20:51;100003.25;;;9.94;70.84
63607;BME280;71992;52.478;-1.918;2024-03-22T11:23:19;100001.63;;;9.92;69.70
63607;BME280;71992;52.478;-1.918;2024-03-22T11:25:47;100001.72;;;9.90;69.14
63607;BME280;71992;52.478;-1.918;2024-03-22T11:28:16;100002.66;;;9.89;68.75
63607;BME280;71992;52.478;-1.918;2024-03-22T11:30:44;99992.75;;;9.91;68.47
63607;BME280;71992;52.478;-1.918;2024-03-22T11:33:15;99995.50;;;9.90;67.19
63607;BME280;71992;52.478;-1.918;2024-03-22T11:35:44;99997.41;;;9.88;67.93
63607;BME280;71992;52.478;-1.918;2024-03-22T11:38:12;99993.81;;;9.89;66.21
63607;BME280;71992;52.478;-1.918;2024-03-22T11:40:41;99996.56;;;9.87;65.81
63607;BME280;71992;52.478;-1.918;2024-03-22T11:43:09;99986.25;;;9.81;64.99
63607;BME280;71992;52.478;-1.918;2024-03-22T11:45:38;99982.13;;;9.75;64.68
63607;BME280;71992;52.478;-1.918;2024-03-22T11:48:07;99985.00;;;9.72;63.91
63607;BME280;71992;52.478;-1.918;2024-03-22T11:50:38;99972.44;;;9.74;63.53
63607;BME280;71992;52.478;-1.918;2024-03-22T11:53:07;99977.78;;;9.74;63.39
63607;BME280;71992;52.478;-1.918;2024-03-22T11:55:36;99983.09;;;9.74;62.77
63607;BME280;71992;52.478;-1.918;2024-03-22T11:58:04;99980.31;;;9.76;63.24
63607;BME280;71992;52.478;-1.918;2024-03-22T12:00:32;99974.38;;;9.87;63.87
63607;BME280;71992;52.478;-1.918;2024-03-22T12:03:00;99970.38;;;9.94;63.94
63607;BME280;71992;52.478;-1.918;2024-03-22T12:05:31;99964.78;;;9.98;64.02
63607;BME280;71992;52.478;-1.918;2024-03-22T12:08:03;99965.53;;;10.00;63.73
63607;BME280;71992;52.478;-1.918;2024-03-22T12:10:31;99959.00;;;10.06;63.24
63607;BME280;71992;52.478;-1.918;2024-03-22T12:12:59;99952.34;;;10.13;62.81
63607;BME280;71992;52.478;-1.918;2024-03-22T12:15:28;99951.19;;;10.17;62.33
63607;BME280;71992;52.478;-1.918;2024-03-22T12:17:56;99957.19;;;10.21;62.31
63607;BME280;71992;52.478;-1.918;2024-03-22T12:20:25;99955.00;;;10.28;61.97
63607;BME280;71992;52.478;-1.918;2024-03-22T12:22:53;99957.06;;;10.38;62.88
63607;BME280;71992;52.478;-1.918;2024-03-22T12:25:24;99952.97;;;10.47;61.86
63607;BME280;71992;52.478;-1.918;2024-03-22T12:27:52;99954.69;;;10.48;61.67
63607;BME280;71992;52.478;-1.918;2024-03-22T12:30:21;99951.72;;;10.53;61.56
63607;BME280;71992;52.478;-1.918;2024-03-22T12:32:49;99946.00;;;10.59;62.09
63607;BME280;71992;52.478;-1.918;2024-03-22T12:35:18;99942.94;;;10.65;62.29
63607;BME280;71992;52.478;-1.918;2024-03-22T12:37:46;99943.53;;;10.70;61.37
63607;BME280;71992;52.478;-1.918;2024-03-22T12:40:14;99940.09;;;10.68;60.22
63607;BME280;71992;52.478;-1.918;2024-03-22T12:42:45;99936.44;;;10.69;61.05
63607;BME280;71992;52.478;-1.918;2024-03-22T12:45:13;99935.09;;;10.76;61.73
63607;BME280;71992;52.478;-1.918;2024-03-22T12:47:41;99935.97;;;10.77;61.11
63607;BME280;71992;52.478;-1.918;2024-03-22T12:50:10;99934.38;;;10.74;61.27
63607;BME280;71992;52.478;-1.918;2024-03-22T12:52:38;99935.22;;;10.75;63.75
63607;BME280;71992;52.478;-1.918;2024-03-22T12:55:07;99932.72;;;10.72;63.66
63607;BME280;71992;52.478;-1.918;2024-03-22T12:57:35;99924.63;;;10.73;64.71